sensor_id;sensor_type;location;lat;lon;timestamp;P1;durP1;ratioP1;P2;durP2;ratioP2
17451;SDS011;8843;48.838;9.324;2023-06-22T00:02:17;8.43;;;5.57;;
17451;SDS011;8843;48.838;9.324;2023-06-22T00:04:44;10.47;;;6.00;;
17451;SDS011;8843;48.838;9.324;2023-06-22T00:07:11;6.43;;;5.83;;
17451;SDS011;8843;48.838;9.324;2023-06-22T00:09:38;6.87;;;5.83;;
17451;SDS011;8843;48.838;9.324;2023-06-22T00:12:07;6.27;;;5.20;;
17451;SDS011;8843;48.838;9.324;2023-06-22T00:14:34;6.70;;;5.57;;
17451;SDS011;8843;48.838;9.324;2023-06-22T00:17:01;6.63;;;5.43;;
17451;SDS011;8843;48.838;9.324;2023-06-22T00:19:28;6.70;;;5.37;;
17451;SDS011;8843;48.838;9.324;2023-06-22T00:21:55;9.27;;;6.20;;
17451;SDS011;8843;48.838;9.324;2023-06-22T00:24:25;6.23;;;5.63;;
17451;SDS011;8843;48.838;9.324;2023-06-22T00:26:52;8.80;;;5.77;;
17451;SDS011;8843;48.838;9.324;2023-06-22T00:29:20;7.13;;;5.40;;
17451;SDS011;8843;48.838;9.324;2023-06-22T00:31:47;6.77;;;5.50;;
17451;SDS011;8843;48.838;9.324;2023-06-22T00:34:14;7.00;;;6.03;;
17451;SDS011;8843;48.838;9.324;2023-06-22T00:36:41;11.07;;;5.47;;
17451;SDS011;8843;48.838;9.324;2023-06-22T00:39:08;6.70;;;5.53;;
17451;SDS011;8843;48.838;9.324;2023-06-22T00:41:36;9.67;;;6.17;;
17451;SDS011;8843;48.838;9.324;2023-06-22T00:44:02;6.80;;;5.10;;
17451;SDS011;8843;48.838;9.324;2023-06-22T00:46:31;7.27;;;5.40;;
17451;SDS011;8843;48.838;9.324;2023-06-22T00:48:58;12.67;;;5.70;;
17451;SDS011;8843;48.838;9.324;2023-06-22T00:51:25;7.50;;;6.20;;
17451;SDS011;8843;48.838;9.324;2023-06-22T00:53:52;6.47;;;5.80;;
17451;SDS011;8843;48.838;9.324;2023-06-22T00:56:20;9.27;;;5.73;;
17451;SDS011;8843;48.838;9.324;2023-06-22T00:58:50;8.00;;;5.27;;
17451;SDS011;8843;48.838;9.324;2023-06-22T01:01:18;6.60;;;5.43;;
17451;SDS011;8843;48.838;9.324;2023-06-22T01:03:49;8.20;;;6.57;;
17451;SDS011;8843;48.838;9.324;2023-06-22T01:06:19;7.43;;;5.80;;
17451;SDS011;8843;48.838;9.324;2023-06-22T01:08:53;6.43;;;5.37;;
17451;SDS011;8843;48.838;9.324;2023-06-22T01:11:31;8.67;;;6.37;;
17451;SDS011;8843;48.838;9.324;2023-06-22T01:14:04;9.70;;;6.20;;
17451;SDS011;8843;48.838;9.324;2023-06-22T01:16:37;6.33;;;5.73;;
17451;SDS011;8843;48.838;9.324;2023-06-22T01:19:14;6.47;;;5.70;;
17451;SDS011;8843;48.838;9.324;2023-06-22T01:21:55;7.93;;;5.53;;
17451;SDS011;8843;48.838;9.324;2023-06-22T01:24:24;9.00;;;5.93;;
17451;SDS011;8843;48.838;9.324;2023-06-22T01:26:59;11.63;;;7.07;;
17451;SDS011;8843;48.838;9.324;2023-06-22T01:29:37;9.20;;;7.20;;
17451;SDS011;8843;48.838;9.324;2023-06-22T01:32:05;9.17;;;7.27;;
17451;SDS011;8843;48.838;9.324;2023-06-22T01:34:33;7.20;;;6.43;;
17451;SDS011;8843;48.838;9.324;2023-06-22T01:37:01;11.47;;;6.17;;
17451;SDS011;8843;48.838;9.324;2023-06-22T01:39:29;7.37;;;6.60;;
17451;SDS011;8843;48.838;9.324;2023-06-22T01:41:57;7.13;;;6.37;;
17451;SDS011;8843;48.838;9.324;2023-06-22T01:44:24;7.13;;;6.33;;
17451;SDS011;8843;48.838;9.324;2023-06-22T01:46:54;7.07;;;5.67;;
17451;SDS011;8843;48.838;9.324;2023-06-22T01:49:21;7.23;;;6.07;;
17451;SDS011;8843;48.838;9.324;2023-06-22T01:51:48;7.20;;;6.20;;
17451;SDS011;8843;48.838;9.324;2023-06-22T01:54:15;6.70;;;5.80;;
17451;SDS011;8843;48.838;9.324;2023-06-22T01:56:42;8.10;;;6.50;;
17451;SDS011;8843;48.838;9.324;2023-06-22T01:59:11;10.33;;;6.67;;
17451;SDS011;8843;48.838;9.324;2023-06-22T02:01:42;8.03;;;6.57;;
17451;SDS011;8843;48.838;9.324;2023-06-22T02:04:13;7.70;;;6.83;;
17451;SDS011;8843;48.838;9.324;2023-06-22T02:06:46;8.93;;;5.87;;
17451;SDS011;8843;48.838;9.324;2023-06-22T02:09:17;6.93;;;6.07;;
17451;SDS011;8843;48.838;9.324;2023-06-22T02:11:48;11.23;;;7.10;;
17451;SDS011;8843;48.838;9.324;2023-06-22T02:14:19;9.17;;;6.57;;
17451;SDS011;8843;48.838;9.324;2023-06-22T02:16:47;7.30;;;5.87;;
17451;SDS011;8843;48.838;9.324;2023-06-22T02:19:17;6.70;;;5.10;;
17451;SDS011;8843;48.838;9.324;2023-06-22T02:21:48;11.30;;;6.90;;
17451;SDS011;8843;48.838;9.324;2023-06-22T02:24:15;10.63;;;6.73;;
17451;SDS011;8843;48.838;9.324;2023-06-22T02:26:42;12.90;;;7.10;;
17451;SDS011;8843;48.838;9.324;2023-06-22T02:29:10;9.23;;;6.20;;
17451;SDS011;8843;48.838;9.324;2023-06-22T02:31:37;6.83;;;6.20;;
17451;SDS011;8843;48.838;9.324;2023-06-22T02:34:04;10.20;;;6.90;;
17451;SDS011;8843;48.838;9.324;2023-06-22T02:36:32;8.47;;;6.60;;
17451;SDS011;8843;48.838;9.324;2023-06-22T02:38:59;6.87;;;6.23;;
17451;SDS011;8843;48.838;9.324;2023-06-22T02:41:28;7.43;;;6.50;;
17451;SDS011;8843;48.838;9.324;2023-06-22T02:43:55;7.67;;;5.80;;
17451;SDS011;8843;48.838;9.324;2023-06-22T02:46:22;10.17;;;7.10;;
17451;SDS011;8843;48.838;9.324;2023-06-22T02:48:49;6.77;;;5.57;;
17451;SDS011;8843;48.838;9.324;2023-06-22T02:51:15;7.70;;;6.17;;
17451;SDS011;8843;48.838;9.324;2023-06-22T02:53:44;8.97;;;6.90;;
17451;SDS011;8843;48.838;9.324;2023-06-22T02:56:10;7.23;;;5.80;;
17451;SDS011;8843;48.838;9.324;2023-06-22T02:58:38;7.43;;;6.23;;
17451;SDS011;8843;48.838;9.324;2023-06-22T03:01:05;6.13;;;5.53;;
17451;SDS011;8843;48.838;9.324;2023-06-22T03:03:32;10.00;;;5.80;;
17451;SDS011;8843;48.838;9.324;2023-06-22T03:05:58;8.17;;;6.10;;
17451;SDS011;8843;48.838;9.324;2023-06-22T03:08:27;8.87;;;5.70;;
17451;SDS011;8843;48.838;9.324;2023-06-22T03:10:55;9.17;;;6.67;;
17451;SDS011;8843;48.838;9.324;2023-06-22T03:13:22;12.93;;;6.30;;
17451;SDS011;8843;48.838;9.324;2023-06-22T03:15:49;11.60;;;6.60;;
17451;SDS011;8843;48.838;9.324;2023-06-22T03:18:17;6.70;;;5.67;;
17451;SDS011;8843;48.838;9.324;2023-06-22T03:20:44;7.60;;;5.93;;
17451;SDS011;8843;48.838;9.324;2023-06-22T03:23:11;8.17;;;6.83;;
17451;SDS011;8843;48.838;9.324;2023-06-22T03:25:38;8.13;;;5.83;;
17451;SDS011;8843;48.838;9.324;2023-06-22T03:28:06;8.30;;;6.57;;
17451;SDS011;8843;48.838;9.324;2023-06-22T03:30:33;6.30;;;5.70;;
17451;SDS011;8843;48.838;9.324;2023-06-22T03:33:00;6.53;;;5.87;;
17451;SDS011;8843;48.838;9.324;2023-06-22T03:35:27;9.17;;;6.57;;
17451;SDS011;8843;48.838;9.324;2023-06-22T03:37:54;6.73;;;6.00;;
17451;SDS011;8843;48.838;9.324;2023-06-22T03:40:21;6.57;;;5.87;;
17451;SDS011;8843;48.838;9.324;2023-06-22T03:42:47;11.33;;;6.23;;
17451;SDS011;8843;48.838;9.324;2023-06-22T03:45:16;10.77;;;6.07;;
17451;SDS011;8843;48.838;9.324;2023-06-22T03:47:43;8.07;;;6.57;;
17451;SDS011;8843;48.838;9.324;2023-06-22T03:50:10;9.07;;;6.33;;
17451;SDS011;8843;48.838;9.324;2023-06-22T03:52:37;9.20;;;6.27;;
17451;SDS011;8843;48.838;9.324;2023-06-22T03:55:04;10.60;;;6.47;;
17451;SDS011;8843;48.838;9.324;2023-06-22T03:57:32;7.27;;;5.90;;
17451;SDS011;8843;48.838;9.324;2023-06-22T03:59:59;9.30;;;6.67;;
17451;SDS011;8843;48.838;9.324;2023-06-22T04:02:27;12.03;;;6.90;;
17451;SDS011;8843;48.838;9.324;2023-06-22T04:04:54;8.70;;;6.97;;
17451;SDS011;8843;48.838;9.324;2023-06-22T04:07:21;7.47;;;6.70;;
17451;SDS011;8843;48.838;9.324;2023-06-22T04:09:48;11.33;;;7.00;;
17451;SDS011;8843;48.838;9.324;2023-06-22T04:12:14;7.67;;;6.70;;
17451;SDS011;8843;48.838;9.324;2023-06-22T04:14:41;9.90;;;6.90;;
17451;SDS011;8843;48.838;9.324;2023-06-22T04:17:08;7.83;;;7.03;;
17451;SDS011;8843;48.838;9.324;2023-06-22T04:19:36;9.97;;;7.10;;
17451;SDS011;8843;48.838;9.324;2023-06-22T04:22:03;6.60;;;5.77;;
17451;SDS011;8843;48.838;9.324;2023-06-22T04:24:32;7.37;;;6.07;;
17451;SDS011;8843;48.838;9.324;2023-06-22T04:26:59;7.33;;;6.30;;
17451;SDS011;8843;48.838;9.324;2023-06-22T04:29:27;8.30;;;5.70;;
17451;SDS011;8843;48.838;9.324;2023-06-22T04:31:55;8.93;;;6.70;;
17451;SDS011;8843;48.838;9.324;2023-06-22T04:34:23;9.37;;;7.07;;
17451;SDS011;8843;48.838;9.324;2023-06-22T04:36:53;7.47;;;6.27;;
17451;SDS011;8843;48.838;9.324;2023-06-22T04:39:20;7.93;;;6.37;;
17451;SDS011;8843;48.838;9.324;2023-06-22T04:41:48;9.90;;;6.63;;
17451;SDS011;8843;48.838;9.324;2023-06-22T04:44:16;9.73;;;7.03;;
17451;SDS011;8843;48.838;9.324;2023-06-22T04:46:49;8.87;;;6.37;;
17451;SDS011;8843;48.838;9.324;2023-06-22T04:49:19;8.03;;;7.07;;
17451;SDS011;8843;48.838;9.324;2023-06-22T04:51:47;7.67;;;6.40;;
17451;SDS011;8843;48.838;9.324;2023-06-22T04:54:16;6.60;;;5.90;;
17451;SDS011;8843;48.838;9.324;2023-06-22T04:56:43;8.90;;;6.70;;
17451;SDS011;8843;48.838;9.324;2023-06-22T04:59:11;7.93;;;6.47;;
17451;SDS011;8843;48.838;9.324;2023-06-22T05:01:39;10.27;;;6.47;;
17451;SDS011;8843;48.838;9.324;2023-06-22T05:04:06;6.93;;;6.23;;
17451;SDS011;8843;48.838;9.324;2023-06-22T05:06:32;9.93;;;5.93;;
17451;SDS011;8843;48.838;9.324;2023-06-22T05:08:59;9.73;;;6.53;;
17451;SDS011;8843;48.838;9.324;2023-06-22T05:11:29;7.97;;;5.60;;
17451;SDS011;8843;48.838;9.324;2023-06-22T05:13:56;9.73;;;6.60;;
17451;SDS011;8843;48.838;9.324;2023-06-22T05:16:22;7.63;;;6.20;;
17451;SDS011;8843;48.838;9.324;2023-06-22T05:18:51;6.67;;;5.87;;
17451;SDS011;8843;48.838;9.324;2023-06-22T05:21:21;8.00;;;6.23;;
17451;SDS011;8843;48.838;9.324;2023-06-22T05:23:49;9.13;;;6.47;;
17451;SDS011;8843;48.838;9.324;2023-06-22T05:26:16;9.00;;;6.80;;
17451;SDS011;8843;48.838;9.324;2023-06-22T05:28:45;9.07;;;6.20;;
17451;SDS011;8843;48.838;9.324;2023-06-22T05:31:13;8.47;;;6.73;;
17451;SDS011;8843;48.838;9.324;2023-06-22T05:33:40;9.10;;;7.20;;
17451;SDS011;8843;48.838;9.324;2023-06-22T05:36:07;7.80;;;6.47;;
17451;SDS011;8843;48.838;9.324;2023-06-22T05:38:36;9.60;;;6.53;;
17451;SDS011;8843;48.838;9.324;2023-06-22T05:41:08;7.23;;;6.43;;
17451;SDS011;8843;48.838;9.324;2023-06-22T05:43:35;8.53;;;6.40;;
17451;SDS011;8843;48.838;9.324;2023-06-22T05:46:03;8.03;;;6.27;;
17451;SDS011;8843;48.838;9.324;2023-06-22T05:48:31;10.03;;;6.50;;
17451;SDS011;8843;48.838;9.324;2023-06-22T05:50:58;8.27;;;5.87;;
17451;SDS011;8843;48.838;9.324;2023-06-22T05:53:25;8.57;;;6.43;;
17451;SDS011;8843;48.838;9.324;2023-06-22T05:55:52;7.80;;;6.27;;
17451;SDS011;8843;48.838;9.324;2023-06-22T05:58:18;13.17;;;7.50;;
17451;SDS011;8843;48.838;9.324;2023-06-22T06:00:45;14.50;;;6.57;;
17451;SDS011;8843;48.838;9.324;2023-06-22T06:03:14;7.97;;;6.93;;
17451;SDS011;8843;48.838;9.324;2023-06-22T06:05:42;9.23;;;6.43;;
17451;SDS011;8843;48.838;9.324;2023-06-22T06:08:10;9.63;;;6.30;;
17451;SDS011;8843;48.838;9.324;2023-06-22T06:10:37;7.77;;;6.27;;
17451;SDS011;8843;48.838;9.324;2023-06-22T06:13:04;10.03;;;7.33;;
17451;SDS011;8843;48.838;9.324;2023-06-22T06:15:31;8.87;;;6.23;;
17451;SDS011;8843;48.838;9.324;2023-06-22T06:17:58;7.63;;;6.37;;
17451;SDS011;8843;48.838;9.324;2023-06-22T06:20:28;7.23;;;6.33;;
17451;SDS011;8843;48.838;9.324;2023-06-22T06:22:55;8.37;;;6.37;;
17451;SDS011;8843;48.838;9.324;2023-06-22T06:25:22;8.63;;;6.77;;
17451;SDS011;8843;48.838;9.324;2023-06-22T06:27:50;7.67;;;6.30;;
17451;SDS011;8843;48.838;9.324;2023-06-22T06:30:19;9.47;;;7.10;;
17451;SDS011;8843;48.838;9.324;2023-06-22T06:32:47;7.97;;;6.17;;
17451;SDS011;8843;48.838;9.324;2023-06-22T06:35:14;6.90;;;6.00;;
17451;SDS011;8843;48.838;9.324;2023-06-22T06:37:43;10.30;;;6.17;;
17451;SDS011;8843;48.838;9.324;2023-06-22T06:40:12;11.57;;;6.03;;
17451;SDS011;8843;48.838;9.324;2023-06-22T06:42:40;7.90;;;6.50;;
17451;SDS011;8843;48.838;9.324;2023-06-22T06:45:10;9.47;;;6.60;;
17451;SDS011;8843;48.838;9.324;2023-06-22T06:47:38;10.60;;;6.57;;
17451;SDS011;8843;48.838;9.324;2023-06-22T06:50:05;8.80;;;6.80;;
17451;SDS011;8843;48.838;9.324;2023-06-22T06:52:33;8.80;;;5.93;;
17451;SDS011;8843;48.838;9.324;2023-06-22T06:55:01;8.27;;;6.17;;
17451;SDS011;8843;48.838;9.324;2023-06-22T06:57:30;9.00;;;6.63;;
17451;SDS011;8843;48.838;9.324;2023-06-22T06:59:57;12.17;;;6.23;;
17451;SDS011;8843;48.838;9.324;2023-06-22T07:02:25;7.43;;;5.83;;
17451;SDS011;8843;48.838;9.324;2023-06-22T07:04:53;7.17;;;6.30;;
17451;SDS011;8843;48.838;9.324;2023-06-22T07:07:21;9.87;;;5.90;;
17451;SDS011;8843;48.838;9.324;2023-06-22T07:09:48;9.47;;;5.80;;
17451;SDS011;8843;48.838;9.324;2023-06-22T07:12:16;6.20;;;5.27;;
17451;SDS011;8843;48.838;9.324;2023-06-22T07:14:43;8.23;;;5.63;;
17451;SDS011;8843;48.838;9.324;2023-06-22T07:17:10;10.77;;;5.77;;
17451;SDS011;8843;48.838;9.324;2023-06-22T07:19:37;6.53;;;5.40;;
17451;SDS011;8843;48.838;9.324;2023-06-22T07:22:04;8.73;;;6.10;;
17451;SDS011;8843;48.838;9.324;2023-06-22T07:24:31;12.17;;;5.50;;
17451;SDS011;8843;48.838;9.324;2023-06-22T07:26:58;6.83;;;5.60;;
17451;SDS011;8843;48.838;9.324;2023-06-22T07:29:26;10.33;;;5.60;;
17451;SDS011;8843;48.838;9.324;2023-06-22T07:31:53;5.73;;;5.10;;
17451;SDS011;8843;48.838;9.324;2023-06-22T07:34:21;8.17;;;4.80;;
17451;SDS011;8843;48.838;9.324;2023-06-22T07:36:48;7.87;;;4.80;;
17451;SDS011;8843;48.838;9.324;2023-06-22T07:39:15;6.30;;;4.60;;
17451;SDS011;8843;48.838;9.324;2023-06-22T07:41:42;5.80;;;4.97;;
17451;SDS011;8843;48.838;9.324;2023-06-22T07:44:09;9.83;;;4.90;;
17451;SDS011;8843;48.838;9.324;2023-06-22T07:46:37;6.60;;;4.77;;
17451;SDS011;8843;48.838;9.324;2023-06-22T07:49:04;8.43;;;4.53;;
17451;SDS011;8843;48.838;9.324;2023-06-22T07:51:30;11.80;;;5.03;;
17451;SDS011;8843;48.838;9.324;2023-06-22T07:53:57;8.67;;;4.53;;
17451;SDS011;8843;48.838;9.324;2023-06-22T07:56:24;4.93;;;3.97;;
17451;SDS011;8843;48.838;9.324;2023-06-22T07:58:51;6.63;;;4.60;;
17451;SDS011;8843;48.838;9.324;2023-06-22T08:01:18;6.13;;;4.23;;
17451;SDS011;8843;48.838;9.324;2023-06-22T08:03:47;6.93;;;4.50;;
17451;SDS011;8843;48.838;9.324;2023-06-22T08:06:14;7.73;;;4.37;;
17451;SDS011;8843;48.838;9.324;2023-06-22T08:08:41;5.80;;;4.07;;
17451;SDS011;8843;48.838;9.324;2023-06-22T08:11:08;6.60;;;3.93;;
17451;SDS011;8843;48.838;9.324;2023-06-22T08:13:35;10.47;;;5.07;;
17451;SDS011;8843;48.838;9.324;2023-06-22T08:16:02;7.57;;;4.97;;
17451;SDS011;8843;48.838;9.324;2023-06-22T08:18:29;9.43;;;4.93;;
17451;SDS011;8843;48.838;9.324;2023-06-22T08:20:58;7.10;;;4.10;;
17451;SDS011;8843;48.838;9.324;2023-06-22T08:23:25;9.13;;;4.80;;
17451;SDS011;8843;48.838;9.324;2023-06-22T08:25:51;6.10;;;4.43;;
17451;SDS011;8843;48.838;9.324;2023-06-22T08:28:18;7.70;;;4.73;;
17451;SDS011;8843;48.838;9.324;2023-06-22T08:30:45;7.53;;;3.83;;
17451;SDS011;8843;48.838;9.324;2023-06-22T08:33:12;6.33;;;4.60;;
17451;SDS011;8843;48.838;9.324;2023-06-22T08:35:39;5.97;;;4.37;;
17451;SDS011;8843;48.838;9.324;2023-06-22T08:38:07;6.87;;;4.40;;
17451;SDS011;8843;48.838;9.324;2023-06-22T08:40:34;9.03;;;4.30;;
17451;SDS011;8843;48.838;9.324;2023-06-22T08:43:01;11.37;;;4.77;;
17451;SDS011;8843;48.838;9.324;2023-06-22T08:45:28;6.63;;;4.70;;
17451;SDS011;8843;48.838;9.324;2023-06-22T08:47:54;8.27;;;4.63;;
17451;SDS011;8843;48.838;9.324;2023-06-22T08:50:21;6.37;;;4.13;;
17451;SDS011;8843;48.838;9.324;2023-06-22T08:52:48;7.47;;;4.47;;
17451;SDS011;8843;48.838;9.324;2023-06-22T08:55:16;6.47;;;4.37;;
17451;SDS011;8843;48.838;9.324;2023-06-22T08:57:43;6.93;;;4.03;;
17451;SDS011;8843;48.838;9.324;2023-06-22T09:00:11;7.60;;;4.50;;
17451;SDS011;8843;48.838;9.324;2023-06-22T09:02:47;10.70;;;4.60;;
17451;SDS011;8843;48.838;9.324;2023-06-22T09:05:14;8.10;;;4.87;;
17451;SDS011;8843;48.838;9.324;2023-06-22T09:07:42;8.70;;;4.53;;
17451;SDS011;8843;48.838;9.324;2023-06-22T09:10:09;8.43;;;4.87;;
17451;SDS011;8843;48.838;9.324;2023-06-22T09:12:38;13.17;;;5.10;;
17451;SDS011;8843;48.838;9.324;2023-06-22T09:15:06;8.97;;;5.10;;
17451;SDS011;8843;48.838;9.324;2023-06-22T09:17:33;9.50;;;4.97;;
17451;SDS011;8843;48.838;9.324;2023-06-22T09:20:01;5.67;;;4.00;;
17451;SDS011;8843;48.838;9.324;2023-06-22T09:22:30;8.27;;;4.80;;
17451;SDS011;8843;48.838;9.324;2023-06-22T09:24:57;9.10;;;5.30;;
17451;SDS011;8843;48.838;9.324;2023-06-22T09:27:25;10.20;;;5.00;;
17451;SDS011;8843;48.838;9.324;2023-06-22T09:29:54;5.67;;;4.23;;
17451;SDS011;8843;48.838;9.324;2023-06-22T09:32:23;9.63;;;4.80;;
17451;SDS011;8843;48.838;9.324;2023-06-22T09:34:50;9.43;;;4.90;;
17451;SDS011;8843;48.838;9.324;2023-06-22T09:37:17;6.67;;;4.43;;
17451;SDS011;8843;48.838;9.324;2023-06-22T09:39:44;5.23;;;4.53;;
17451;SDS011;8843;48.838;9.324;2023-06-22T09:42:11;8.57;;;4.43;;
17451;SDS011;8843;48.838;9.324;2023-06-22T09:44:38;7.23;;;4.87;;
17451;SDS011;8843;48.838;9.324;2023-06-22T09:47:07;10.87;;;4.93;;
17451;SDS011;8843;48.838;9.324;2023-06-22T09:49:34;6.50;;;4.27;;
17451;SDS011;8843;48.838;9.324;2023-06-22T09:52:00;8.37;;;4.47;;
17451;SDS011;8843;48.838;9.324;2023-06-22T09:54:27;9.13;;;4.80;;
17451;SDS011;8843;48.838;9.324;2023-06-22T09:56:54;9.10;;;4.80;;
17451;SDS011;8843;48.838;9.324;2023-06-22T09:59:21;6.53;;;4.13;;
17451;SDS011;8843;48.838;9.324;2023-06-22T10:01:48;9.17;;;4.47;;
17451;SDS011;8843;48.838;9.324;2023-06-22T10:04:16;9.03;;;4.70;;
17451;SDS011;8843;48.838;9.324;2023-06-22T10:06:43;8.83;;;4.73;;
17451;SDS011;8843;48.838;9.324;2023-06-22T10:09:10;6.17;;;4.60;;
17451;SDS011;8843;48.838;9.324;2023-06-22T10:11:39;7.40;;;4.33;;
17451;SDS011;8843;48.838;9.324;2023-06-22T10:14:12;9.37;;;4.60;;
17451;SDS011;8843;48.838;9.324;2023-06-22T10:16:40;8.80;;;5.23;;
17451;SDS011;8843;48.838;9.324;2023-06-22T10:19:07;12.50;;;5.30;;
17451;SDS011;8843;48.838;9.324;2023-06-22T10:21:35;8.30;;;4.40;;
17451;SDS011;8843;48.838;9.324;2023-06-22T10:24:02;7.93;;;4.87;;
17451;SDS011;8843;48.838;9.324;2023-06-22T10:26:31;7.77;;;4.80;;
17451;SDS011;8843;48.838;9.324;2023-06-22T10:28:59;8.87;;;4.50;;
17451;SDS011;8843;48.838;9.324;2023-06-22T10:31:26;8.73;;;4.83;;
17451;SDS011;8843;48.838;9.324;2023-06-22T10:33:53;9.03;;;4.90;;
17451;SDS011;8843;48.838;9.324;2023-06-22T10:36:21;11.77;;;4.43;;
17451;SDS011;8843;48.838;9.324;2023-06-22T10:38:49;6.60;;;4.00;;
17451;SDS011;8843;48.838;9.324;2023-06-22T10:41:17;8.10;;;4.67;;
17451;SDS011;8843;48.838;9.324;2023-06-22T10:43:44;10.13;;;4.47;;
17451;SDS011;8843;48.838;9.324;2023-06-22T10:46:12;12.77;;;5.07;;
17451;SDS011;8843;48.838;9.324;2023-06-22T10:48:39;12.50;;;4.77;;
17451;SDS011;8843;48.838;9.324;2023-06-22T10:51:05;8.23;;;4.30;;
17451;SDS011;8843;48.838;9.324;2023-06-22T10:53:32;11.07;;;4.53;;
17451;SDS011;8843;48.838;9.324;2023-06-22T10:56:00;9.37;;;5.00;;
17451;SDS011;8843;48.838;9.324;2023-06-22T10:58:27;10.23;;;5.60;;
17451;SDS011;8843;48.838;9.324;2023-06-22T11:00:54;13.20;;;4.73;;
17451;SDS011;8843;48.838;9.324;2023-06-22T11:03:21;7.77;;;4.63;;
17451;SDS011;8843;48.838;9.324;2023-06-22T11:05:48;8.63;;;4.93;;
17451;SDS011;8843;48.838;9.324;2023-06-22T11:08:15;8.47;;;4.90;;
17451;SDS011;8843;48.838;9.324;2023-06-22T11:10:42;8.27;;;4.43;;
17451;SDS011;8843;48.838;9.324;2023-06-22T11:13:11;7.97;;;5.10;;
17451;SDS011;8843;48.838;9.324;2023-06-22T11:15:38;10.83;;;4.33;;
17451;SDS011;8843;48.838;9.324;2023-06-22T11:18:05;11.97;;;5.10;;
17451;SDS011;8843;48.838;9.324;2023-06-22T11:20:33;10.07;;;5.07;;
17451;SDS011;8843;48.838;9.324;2023-06-22T11:23:03;11.37;;;5.27;;
17451;SDS011;8843;48.838;9.324;2023-06-22T11:25:30;12.67;;;5.17;;
17451;SDS011;8843;48.838;9.324;2023-06-22T11:27:59;11.70;;;4.80;;
17451;SDS011;8843;48.838;9.324;2023-06-22T11:30:28;10.60;;;4.33;;
17451;SDS011;8843;48.838;9.324;2023-06-22T11:32:56;12.17;;;5.37;;
17451;SDS011;8843;48.838;9.324;2023-06-22T11:35:23;7.90;;;5.10;;
17451;SDS011;8843;48.838;9.324;2023-06-22T11:37:50;9.90;;;4.77;;
17451;SDS011;8843;48.838;9.324;2023-06-22T11:40:16;9.93;;;4.73;;
17451;SDS011;8843;48.838;9.324;2023-06-22T11:42:43;9.77;;;5.03;;
17451;SDS011;8843;48.838;9.324;2023-06-22T11:45:11;11.13;;;5.57;;
17451;SDS011;8843;48.838;9.324;2023-06-22T11:47:39;12.17;;;5.63;;
17451;SDS011;8843;48.838;9.324;2023-06-22T11:50:06;7.73;;;4.83;;
17451;SDS011;8843;48.838;9.324;2023-06-22T11:52:34;6.27;;;4.30;;
17451;SDS011;8843;48.838;9.324;2023-06-22T11:55:02;8.90;;;4.87;;
17451;SDS011;8843;48.838;9.324;2023-06-22T11:57:30;10.17;;;4.93;;
17451;SDS011;8843;48.838;9.324;2023-06-22T11:59:59;10.67;;;4.60;;
17451;SDS011;8843;48.838;9.324;2023-06-22T12:02:26;12.40;;;5.40;;
17451;SDS011;8843;48.838;9.324;2023-06-22T12:04:54;9.93;;;4.97;;
17451;SDS011;8843;48.838;9.324;2023-06-22T12:07:23;12.33;;;4.93;;
17451;SDS011;8843;48.838;9.324;2023-06-22T12:09:50;10.90;;;5.33;;
17451;SDS011;8843;48.838;9.324;2023-06-22T12:12:16;13.60;;;5.07;;
17451;SDS011;8843;48.838;9.324;2023-06-22T12:14:43;9.20;;;4.93;;
17451;SDS011;8843;48.838;9.324;2023-06-22T12:17:10;14.20;;;5.30;;
17451;SDS011;8843;48.838;9.324;2023-06-22T12:19:37;12.77;;;5.47;;
17451;SDS011;8843;48.838;9.324;2023-06-22T12:22:05;10.27;;;4.57;;
17451;SDS011;8843;48.838;9.324;2023-06-22T12:24:32;10.53;;;5.43;;
17451;SDS011;8843;48.838;9.324;2023-06-22T12:26:59;10.43;;;5.17;;
17451;SDS011;8843;48.838;9.324;2023-06-22T12:29:28;10.30;;;5.43;;
17451;SDS011;8843;48.838;9.324;2023-06-22T12:31:55;14.87;;;5.80;;
17451;SDS011;8843;48.838;9.324;2023-06-22T12:34:22;9.30;;;5.40;;
17451;SDS011;8843;48.838;9.324;2023-06-22T12:36:49;8.37;;;5.40;;
17451;SDS011;8843;48.838;9.324;2023-06-22T12:39:17;8.47;;;5.40;;
17451;SDS011;8843;48.838;9.324;2023-06-22T12:41:44;8.33;;;5.60;;
17451;SDS011;8843;48.838;9.324;2023-06-22T12:44:11;11.57;;;5.20;;
17451;SDS011;8843;48.838;9.324;2023-06-22T12:46:37;8.77;;;4.97;;
17451;SDS011;8843;48.838;9.324;2023-06-22T12:49:04;13.47;;;6.00;;
17451;SDS011;8843;48.838;9.324;2023-06-22T12:51:31;19.80;;;5.93;;
17451;SDS011;8843;48.838;9.324;2023-06-22T12:53:59;10.47;;;5.47;;
17451;SDS011;8843;48.838;9.324;2023-06-22T12:56:27;8.03;;;5.13;;
17451;SDS011;8843;48.838;9.324;2023-06-22T12:58:54;10.60;;;5.67;;
17451;SDS011;8843;48.838;9.324;2023-06-22T13:01:20;11.03;;;6.30;;
17451;SDS011;8843;48.838;9.324;2023-06-22T13:03:48;10.93;;;6.07;;
17451;SDS011;8843;48.838;9.324;2023-06-22T13:06:14;9.77;;;6.10;;
17451;SDS011;8843;48.838;9.324;2023-06-22T13:08:41;9.87;;;5.40;;
17451;SDS011;8843;48.838;9.324;2023-06-22T13:11:08;14.77;;;6.23;;
17451;SDS011;8843;48.838;9.324;2023-06-22T13:13:36;17.07;;;6.37;;
17451;SDS011;8843;48.838;9.324;2023-06-22T13:16:04;15.90;;;6.40;;
17451;SDS011;8843;48.838;9.324;2023-06-22T13:18:31;14.30;;;5.97;;
17451;SDS011;8843;48.838;9.324;2023-06-22T13:20:59;9.93;;;5.53;;
17451;SDS011;8843;48.838;9.324;2023-06-22T13:23:25;10.27;;;5.40;;
17451;SDS011;8843;48.838;9.324;2023-06-22T13:25:52;6.97;;;5.27;;
17451;SDS011;8843;48.838;9.324;2023-06-22T13:28:19;12.33;;;5.73;;
17451;SDS011;8843;48.838;9.324;2023-06-22T13:30:47;11.60;;;4.90;;
17451;SDS011;8843;48.838;9.324;2023-06-22T13:33:14;8.40;;;4.83;;
17451;SDS011;8843;48.838;9.324;2023-06-22T13:35:41;11.83;;;5.43;;
17451;SDS011;8843;48.838;9.324;2023-06-22T13:38:09;9.00;;;4.63;;
17451;SDS011;8843;48.838;9.324;2023-06-22T13:40:36;10.20;;;5.20;;
17451;SDS011;8843;48.838;9.324;2023-06-22T13:43:04;13.07;;;5.43;;
17451;SDS011;8843;48.838;9.324;2023-06-22T13:45:31;8.53;;;4.87;;
17451;SDS011;8843;48.838;9.324;2023-06-22T13:47:59;8.43;;;5.10;;
17451;SDS011;8843;48.838;9.324;2023-06-22T13:50:26;10.70;;;5.50;;
17451;SDS011;8843;48.838;9.324;2023-06-22T13:52:54;9.40;;;5.10;;
17451;SDS011;8843;48.838;9.324;2023-06-22T13:55:21;12.47;;;5.00;;
17451;SDS011;8843;48.838;9.324;2023-06-22T13:57:48;9.60;;;5.50;;
17451;SDS011;8843;48.838;9.324;2023-06-22T14:00:16;10.40;;;5.37;;
17451;SDS011;8843;48.838;9.324;2023-06-22T14:02:43;13.87;;;5.60;;
17451;SDS011;8843;48.838;9.324;2023-06-22T14:05:12;11.70;;;5.70;;
17451;SDS011;8843;48.838;9.324;2023-06-22T14:07:38;11.17;;;5.00;;
17451;SDS011;8843;48.838;9.324;2023-06-22T14:10:06;12.50;;;4.80;;
17451;SDS011;8843;48.838;9.324;2023-06-22T14:12:33;10.53;;;5.47;;
17451;SDS011;8843;48.838;9.324;2023-06-22T14:15:00;13.53;;;6.23;;
17451;SDS011;8843;48.838;9.324;2023-06-22T14:17:26;16.97;;;5.63;;
17451;SDS011;8843;48.838;9.324;2023-06-22T14:19:53;12.17;;;4.93;;
17451;SDS011;8843;48.838;9.324;2023-06-22T14:22:22;16.33;;;6.03;;
17451;SDS011;8843;48.838;9.324;2023-06-22T14:24:49;10.80;;;5.93;;
17451;SDS011;8843;48.838;9.324;2023-06-22T14:27:16;13.33;;;5.20;;
17451;SDS011;8843;48.838;9.324;2023-06-22T14:29:43;9.37;;;4.63;;
17451;SDS011;8843;48.838;9.324;2023-06-22T14:32:10;12.33;;;5.20;;
17451;SDS011;8843;48.838;9.324;2023-06-22T14:34:37;11.10;;;5.13;;
17451;SDS011;8843;48.838;9.324;2023-06-22T14:37:05;14.40;;;4.90;;
17451;SDS011;8843;48.838;9.324;2023-06-22T14:39:33;9.83;;;5.37;;
17451;SDS011;8843;48.838;9.324;2023-06-22T14:42:00;17.20;;;5.50;;
17451;SDS011;8843;48.838;9.324;2023-06-22T14:44:28;7.17;;;4.90;;
17451;SDS011;8843;48.838;9.324;2023-06-22T14:46:55;9.93;;;5.13;;
17451;SDS011;8843;48.838;9.324;2023-06-22T14:49:22;11.47;;;5.30;;
17451;SDS011;8843;48.838;9.324;2023-06-22T14:51:49;10.03;;;6.00;;
17451;SDS011;8843;48.838;9.324;2023-06-22T14:54:16;12.40;;;4.80;;
17451;SDS011;8843;48.838;9.324;2023-06-22T14:56:44;8.70;;;4.90;;
17451;SDS011;8843;48.838;9.324;2023-06-22T14:59:12;11.30;;;5.27;;
17451;SDS011;8843;48.838;9.324;2023-06-22T15:01:38;8.80;;;4.47;;